sensor_id;sensor_type;location;lat;lon;timestamp;temperature;humidity
7762;DHT22;3925;48.636;9.516;2022-12-29T00:00:53;10.10;99.90
7762;DHT22;3925;48.636;9.516;2022-12-29T00:03:20;10.20;99.90
7762;DHT22;3925;48.636;9.516;2022-12-29T00:05:55;10.20;99.90
7762;DHT22;3925;48.636;9.516;2022-12-29T00:08:23;10.20;99.90
7762;DHT22;3925;48.636;9.516;2022-12-29T00:11:08;10.20;99.90
7762;DHT22;3925;48.636;9.516;2022-12-29T00:13:35;10.20;99.90
7762;DHT22;3925;48.636;9.516;2022-12-29T00:16:20;10.20;99.90
7762;DHT22;3925;48.636;9.516;2022-12-29T00:18:47;10.20;99.90
7762;DHT22;3925;48.636;9.516;2022-12-29T00:21:17;10.20;99.90
7762;DHT22;3925;48.636;9.516;2022-12-29T00:24:02;10.20;99.90
7762;DHT22;3925;48.636;9.516;2022-12-29T00:26:49;10.20;99.90
7762;DHT22;3925;48.636;9.516;2022-12-29T00:29:34;10.30;99.90
7762;DHT22;3925;48.636;9.516;2022-12-29T00:32:18;10.30;99.90
7762;DHT22;3925;48.636;9.516;2022-12-29T00:35:02;10.30;99.90
7762;DHT22;3925;48.636;9.516;2022-12-29T00:37:37;10.40;99.90
7762;DHT22;3925;48.636;9.516;2022-12-29T00:40:22;10.40;99.90
7762;DHT22;3925;48.636;9.516;2022-12-29T00:43:06;10.40;99.90
7762;DHT22;3925;48.636;9.516;2022-12-29T00:45:50;10.40;99.90
7762;DHT22;3925;48.636;9.516;2022-12-29T00:48:17;10.40;99.90
7762;DHT22;3925;48.636;9.516;2022-12-29T00:51:05;10.40;99.90
7762;DHT22;3925;48.636;9.516;2022-12-29T00:53:33;10.50;99.90
7762;DHT22;3925;48.636;9.516;2022-12-29T00:56:00;10.50;99.90
7762;DHT22;3925;48.636;9.516;2022-12-29T00:58:27;10.40;99.90
7762;DHT22;3925;48.636;9.516;2022-12-29T01:01:01;10.40;99.90
7762;DHT22;3925;48.636;9.516;2022-12-29T01:03:28;10.40;99.90
7762;DHT22;3925;48.636;9.516;2022-12-29T01:05:55;10.30;99.90
7762;DHT22;3925;48.636;9.516;2022-12-29T01:08:22;10.30;99.90
7762;DHT22;3925;48.636;9.516;2022-12-29T01:10:58;10.40;99.90
7762;DHT22;3925;48.636;9.516;2022-12-29T01:13:24;10.40;99.90
7762;DHT22;3925;48.636;9.516;2022-12-29T01:15:52;10.40;99.90
7762;DHT22;3925;48.636;9.516;2022-12-29T01:18:19;10.40;99.90
7762;DHT22;3925;48.636;9.516;2022-12-29T01:20:46;10.30;99.90
7762;DHT22;3925;48.636;9.516;2022-12-29T01:23:14;10.30;99.90
7762;DHT22;3925;48.636;9.516;2022-12-29T01:25:45;10.40;99.90
7762;DHT22;3925;48.636;9.516;2022-12-29T01:28:14;10.40;99.90
7762;DHT22;3925;48.636;9.516;2022-12-29T01:30:41;10.40;99.90
7762;DHT22;3925;48.636;9.516;2022-12-29T01:33:09;10.30;99.90
7762;DHT22;3925;48.636;9.516;2022-12-29T01:35:35;10.30;99.90
7762;DHT22;3925;48.636;9.516;2022-12-29T01:38:02;10.40;99.90
7762;DHT22;3925;48.636;9.516;2022-12-29T01:40:29;10.40;99.90
7762;DHT22;3925;48.636;9.516;2022-12-29T01:42:56;10.40;99.90
7762;DHT22;3925;48.636;9.516;2022-12-29T01:45:24;10.40;99.90
7762;DHT22;3925;48.636;9.516;2022-12-29T01:47:54;10.40;99.90
7762;DHT22;3925;48.636;9.516;2022-12-29T01:50:26;10.50;99.90
7762;DHT22;3925;48.636;9.516;2022-12-29T01:52:57;10.60;99.90
7762;DHT22;3925;48.636;9.516;2022-12-29T01:55:30;10.50;99.90
7762;DHT22;3925;48.636;9.516;2022-12-29T01:58:01;10.50;99.90
7762;DHT22;3925;48.636;9.516;2022-12-29T02:00:32;10.60;99.90
7762;DHT22;3925;48.636;9.516;2022-12-29T02:02:59;10.60;99.90
7762;DHT22;3925;48.636;9.516;2022-12-29T02:05:32;10.70;99.90
7762;DHT22;3925;48.636;9.516;2022-12-29T02:08:01;10.70;99.90
7762;DHT22;3925;48.636;9.516;2022-12-29T02:10:30;10.70;99.90
7762;DHT22;3925;48.636;9.516;2022-12-29T02:12:58;10.70;99.90
7762;DHT22;3925;48.636;9.516;2022-12-29T02:15:34;10.70;99.90
7762;DHT22;3925;48.636;9.516;2022-12-29T02:18:18;10.70;99.90
7762;DHT22;3925;48.636;9.516;2022-12-29T02:24:44;10.70;99.90
7762;DHT22;3925;48.636;9.516;2022-12-29T02:27:48;10.60;99.90
7762;DHT22;3925;48.636;9.516;2022-12-29T02:30:46;10.60;99.90
7762;DHT22;3925;48.636;9.516;2022-12-29T02:33:24;10.60;99.90
7762;DHT22;3925;48.636;9.516;2022-12-29T02:36:05;10.60;99.90
7762;DHT22;3925;48.636;9.516;2022-12-29T02:38:46;10.60;99.90
7762;DHT22;3925;48.636;9.516;2022-12-29T02:41:21;10.50;99.90
7762;DHT22;3925;48.636;9.516;2022-12-29T02:43:53;10.60;99.90
7762;DHT22;3925;48.636;9.516;2022-12-29T02:46:27;10.50;99.90
7762;DHT22;3925;48.636;9.516;2022-12-29T02:49:01;10.50;99.90
7762;DHT22;3925;48.636;9.516;2022-12-29T02:51:34;10.50;99.90
7762;DHT22;3925;48.636;9.516;2022-12-29T02:54:03;10.50;99.90
7762;DHT22;3925;48.636;9.516;2022-12-29T02:56:47;10.50;99.90
7762;DHT22;3925;48.636;9.516;2022-12-29T02:59:15;10.50;99.90
7762;DHT22;3925;48.636;9.516;2022-12-29T03:02:04;10.50;99.90
7762;DHT22;3925;48.636;9.516;2022-12-29T03:07:55;10.50;99.90
7762;DHT22;3925;48.636;9.516;2022-12-29T03:10:33;10.50;99.90
7762;DHT22;3925;48.636;9.516;2022-12-29T03:13:06;10.50;99.90
7762;DHT22;3925;48.636;9.516;2022-12-29T03:15:58;10.60;99.90
7762;DHT22;3925;48.636;9.516;2022-12-29T03:18:41;10.60;99.90
7762;DHT22;3925;48.636;9.516;2022-12-29T03:21:13;10.50;99.90
7762;DHT22;3925;48.636;9.516;2022-12-29T03:23:43;10.50;99.90
7762;DHT22;3925;48.636;9.516;2022-12-29T03:26:15;10.50;99.90
7762;DHT22;3925;48.636;9.516;2022-12-29T03:28:47;10.50;99.90
7762;DHT22;3925;48.636;9.516;2022-12-29T03:31:17;10.50;99.90
7762;DHT22;3925;48.636;9.516;2022-12-29T03:33:47;10.50;99.90
7762;DHT22;3925;48.636;9.516;2022-12-29T03:36:21;10.40;99.90
7762;DHT22;3925;48.636;9.516;2022-12-29T03:38:58;10.40;99.90
7762;DHT22;3925;48.636;9.516;2022-12-29T03:41:30;10.30;99.90
7762;DHT22;3925;48.636;9.516;2022-12-29T03:43:57;10.30;99.90
7762;DHT22;3925;48.636;9.516;2022-12-29T03:46:24;10.20;99.90
7762;DHT22;3925;48.636;9.516;2022-12-29T03:48:52;10.20;99.90
7762;DHT22;3925;48.636;9.516;2022-12-29T03:51:19;10.20;99.90
7762;DHT22;3925;48.636;9.516;2022-12-29T03:53:46;10.10;99.90
7762;DHT22;3925;48.636;9.516;2022-12-29T03:56:13;10.10;99.90
7762;DHT22;3925;48.636;9.516;2022-12-29T03:58:40;10.10;99.90
7762;DHT22;3925;48.636;9.516;2022-12-29T04:01:07;10.10;99.90
7762;DHT22;3925;48.636;9.516;2022-12-29T04:03:34;10.10;99.90
7762;DHT22;3925;48.636;9.516;2022-12-29T04:06:02;10.20;99.90
7762;DHT22;3925;48.636;9.516;2022-12-29T04:08:29;10.10;99.90
7762;DHT22;3925;48.636;9.516;2022-12-29T04:10:56;10.20;99.90
7762;DHT22;3925;48.636;9.516;2022-12-29T04:13:23;10.30;99.90
7762;DHT22;3925;48.636;9.516;2022-12-29T04:15:50;10.30;99.90
7762;DHT22;3925;48.636;9.516;2022-12-29T04:18:17;10.30;99.90
7762;DHT22;3925;48.636;9.516;2022-12-29T04:20:44;10.30;99.90
7762;DHT22;3925;48.636;9.516;2022-12-29T04:23:30;10.30;99.90
7762;DHT22;3925;48.636;9.516;2022-12-29T04:25:57;10.30;99.90
7762;DHT22;3925;48.636;9.516;2022-12-29T04:28:24;10.30;99.90
7762;DHT22;3925;48.636;9.516;2022-12-29T04:30:51;10.30;99.90
7762;DHT22;3925;48.636;9.516;2022-12-29T04:33:18;10.40;99.90
7762;DHT22;3925;48.636;9.516;2022-12-29T04:35:46;10.40;99.90
7762;DHT22;3925;48.636;9.516;2022-12-29T04:38:13;10.40;99.90
7762;DHT22;3925;48.636;9.516;2022-12-29T04:40:44;10.40;99.90
7762;DHT22;3925;48.636;9.516;2022-12-29T04:43:12;10.40;99.90
7762;DHT22;3925;48.636;9.516;2022-12-29T04:45:39;10.30;99.90
7762;DHT22;3925;48.636;9.516;2022-12-29T04:48:09;10.30;99.90
7762;DHT22;3925;48.636;9.516;2022-12-29T04:50:36;10.40;99.90
7762;DHT22;3925;48.636;9.516;2022-12-29T04:53:02;10.40;99.90
7762;DHT22;3925;48.636;9.516;2022-12-29T04:55:29;10.40;99.90
7762;DHT22;3925;48.636;9.516;2022-12-29T04:57:57;10.40;99.90
7762;DHT22;3925;48.636;9.516;2022-12-29T05:00:24;10.30;99.90
7762;DHT22;3925;48.636;9.516;2022-12-29T05:02:51;10.20;99.90
7762;DHT22;3925;48.636;9.516;2022-12-29T05:05:18;10.20;99.90
7762;DHT22;3925;48.636;9.516;2022-12-29T05:07:45;10.10;99.90
7762;DHT22;3925;48.636;9.516;2022-12-29T05:10:12;10.10;99.90
7762;DHT22;3925;48.636;9.516;2022-12-29T05:12:39;10.10;99.90
7762;DHT22;3925;48.636;9.516;2022-12-29T05:15:09;10.00;99.90
7762;DHT22;3925;48.636;9.516;2022-12-29T05:17:36;9.90;99.90
7762;DHT22;3925;48.636;9.516;2022-12-29T05:20:04;9.90;99.90
7762;DHT22;3925;48.636;9.516;2022-12-29T05:22:31;9.80;99.90
7762;DHT22;3925;48.636;9.516;2022-12-29T05:25:00;9.90;99.90
7762;DHT22;3925;48.636;9.516;2022-12-29T05:27:27;10.00;99.90
7762;DHT22;3925;48.636;9.516;2022-12-29T05:29:54;10.00;99.90
7762;DHT22;3925;48.636;9.516;2022-12-29T05:32:22;10.00;99.90
7762;DHT22;3925;48.636;9.516;2022-12-29T05:34:49;10.10;99.90
7762;DHT22;3925;48.636;9.516;2022-12-29T05:37:16;10.20;99.90
7762;DHT22;3925;48.636;9.516;2022-12-29T05:39:42;10.30;99.90
7762;DHT22;3925;48.636;9.516;2022-12-29T05:42:09;10.30;99.90
7762;DHT22;3925;48.636;9.516;2022-12-29T05:44:37;10.30;99.90
7762;DHT22;3925;48.636;9.516;2022-12-29T05:47:04;10.30;99.90
7762;DHT22;3925;48.636;9.516;2022-12-29T05:49:33;10.30;99.90
7762;DHT22;3925;48.636;9.516;2022-12-29T05:52:00;10.20;99.90
7762;DHT22;3925;48.636;9.516;2022-12-29T05:54:26;10.20;99.90
7762;DHT22;3925;48.636;9.516;2022-12-29T05:56:53;10.10;99.90
7762;DHT22;3925;48.636;9.516;2022-12-29T05:59:20;10.10;99.90
7762;DHT22;3925;48.636;9.516;2022-12-29T06:01:47;10.10;99.90
7762;DHT22;3925;48.636;9.516;2022-12-29T06:04:14;10.10;99.90
7762;DHT22;3925;48.636;9.516;2022-12-29T06:06:43;10.20;99.90
7762;DHT22;3925;48.636;9.516;2022-12-29T06:09:10;10.20;99.90
7762;DHT22;3925;48.636;9.516;2022-12-29T06:11:37;10.30;99.90
7762;DHT22;3925;48.636;9.516;2022-12-29T06:14:04;10.30;99.90
7762;DHT22;3925;48.636;9.516;2022-12-29T06:16:31;10.30;99.90
7762;DHT22;3925;48.636;9.516;2022-12-29T06:18:58;10.30;99.90
7762;DHT22;3925;48.636;9.516;2022-12-29T06:21:25;10.20;99.90
7762;DHT22;3925;48.636;9.516;2022-12-29T06:23:53;10.20;99.90
7762;DHT22;3925;48.636;9.516;2022-12-29T06:26:20;10.20;99.90
7762;DHT22;3925;48.636;9.516;2022-12-29T06:28:47;10.20;99.90
7762;DHT22;3925;48.636;9.516;2022-12-29T06:31:13;10.20;99.90
7762;DHT22;3925;48.636;9.516;2022-12-29T06:33:40;10.20;99.90
7762;DHT22;3925;48.636;9.516;2022-12-29T06:36:07;10.30;99.90
7762;DHT22;3925;48.636;9.516;2022-12-29T06:38:34;10.30;99.90
7762;DHT22;3925;48.636;9.516;2022-12-29T06:41:02;10.30;99.90
7762;DHT22;3925;48.636;9.516;2022-12-29T06:43:29;10.30;99.90
7762;DHT22;3925;48.636;9.516;2022-12-29T06:45:57;10.50;99.90
7762;DHT22;3925;48.636;9.516;2022-12-29T06:48:24;10.50;99.90
7762;DHT22;3925;48.636;9.516;2022-12-29T06:50:51;10.60;99.90
7762;DHT22;3925;48.636;9.516;2022-12-29T06:53:18;10.70;99.90
7762;DHT22;3925;48.636;9.516;2022-12-29T06:55:45;10.70;99.90
7762;DHT22;3925;48.636;9.516;2022-12-29T06:58:13;10.90;99.90
7762;DHT22;3925;48.636;9.516;2022-12-29T07:00:40;10.80;99.90
7762;DHT22;3925;48.636;9.516;2022-12-29T07:03:06;10.80;99.90
7762;DHT22;3925;48.636;9.516;2022-12-29T07:05:33;10.90;99.90
7762;DHT22;3925;48.636;9.516;2022-12-29T07:08:00;10.80;99.90
7762;DHT22;3925;48.636;9.516;2022-12-29T07:10:27;10.80;99.90
7762;DHT22;3925;48.636;9.516;2022-12-29T07:12:54;10.70;99.90
7762;DHT22;3925;48.636;9.516;2022-12-29T07:15:22;10.70;99.90
7762;DHT22;3925;48.636;9.516;2022-12-29T07:17:49;10.70;99.90
7762;DHT22;3925;48.636;9.516;2022-12-29T07:20:16;10.70;99.90
7762;DHT22;3925;48.636;9.516;2022-12-29T07:22:43;10.60;99.90
7762;DHT22;3925;48.636;9.516;2022-12-29T07:25:10;10.60;99.90
7762;DHT22;3925;48.636;9.516;2022-12-29T07:27:36;10.50;99.90
7762;DHT22;3925;48.636;9.516;2022-12-29T07:30:04;10.50;99.90
7762;DHT22;3925;48.636;9.516;2022-12-29T07:32:34;10.60;99.90
7762;DHT22;3925;48.636;9.516;2022-12-29T07:35:01;10.50;99.90
7762;DHT22;3925;48.636;9.516;2022-12-29T07:37:28;10.50;99.90
7762;DHT22;3925;48.636;9.516;2022-12-29T07:39:55;10.60;99.90
7762;DHT22;3925;48.636;9.516;2022-12-29T07:42:22;10.60;99.90
7762;DHT22;3925;48.636;9.516;2022-12-29T07:44:48;10.60;99.90
7762;DHT22;3925;48.636;9.516;2022-12-29T07:47:15;10.60;99.90
7762;DHT22;3925;48.636;9.516;2022-12-29T07:49:43;10.60;99.90
7762;DHT22;3925;48.636;9.516;2022-12-29T07:52:10;10.70;99.90
7762;DHT22;3925;48.636;9.516;2022-12-29T07:54:37;10.70;99.90
7762;DHT22;3925;48.636;9.516;2022-12-29T07:57:04;10.80;99.90
7762;DHT22;3925;48.636;9.516;2022-12-29T07:59:31;10.80;99.90
7762;DHT22;3925;48.636;9.516;2022-12-29T08:01:58;10.90;99.90
7762;DHT22;3925;48.636;9.516;2022-12-29T08:04:25;11.00;99.90
7762;DHT22;3925;48.636;9.516;2022-12-29T08:06:53;11.00;99.90
7762;DHT22;3925;48.636;9.516;2022-12-29T08:09:20;11.10;99.90
7762;DHT22;3925;48.636;9.516;2022-12-29T08:11:47;11.30;99.90
7762;DHT22;3925;48.636;9.516;2022-12-29T08:14:14;11.30;99.90
7762;DHT22;3925;48.636;9.516;2022-12-29T08:16:40;11.40;99.90
7762;DHT22;3925;48.636;9.516;2022-12-29T08:19:10;11.50;99.90
7762;DHT22;3925;48.636;9.516;2022-12-29T08:21:37;11.60;99.90
7762;DHT22;3925;48.636;9.516;2022-12-29T08:24:06;11.70;99.90
7762;DHT22;3925;48.636;9.516;2022-12-29T08:26:35;11.80;99.90
7762;DHT22;3925;48.636;9.516;2022-12-29T08:29:01;11.90;99.90
7762;DHT22;3925;48.636;9.516;2022-12-29T08:31:28;12.00;99.90
7762;DHT22;3925;48.636;9.516;2022-12-29T08:33:55;12.10;99.90
7762;DHT22;3925;48.636;9.516;2022-12-29T08:36:22;12.20;99.90
7762;DHT22;3925;48.636;9.516;2022-12-29T08:38:49;12.30;99.90
7762;DHT22;3925;48.636;9.516;2022-12-29T08:41:17;12.40;99.90
7762;DHT22;3925;48.636;9.516;2022-12-29T08:43:45;12.40;99.90
7762;DHT22;3925;48.636;9.516;2022-12-29T08:46:12;12.40;99.90
7762;DHT22;3925;48.636;9.516;2022-12-29T08:48:39;12.20;99.90
7762;DHT22;3925;48.636;9.516;2022-12-29T08:51:06;12.10;99.90
7762;DHT22;3925;48.636;9.516;2022-12-29T08:53:33;12.00;99.90
7762;DHT22;3925;48.636;9.516;2022-12-29T08:56:00;11.90;99.90
7762;DHT22;3925;48.636;9.516;2022-12-29T08:58:28;11.80;99.90
7762;DHT22;3925;48.636;9.516;2022-12-29T09:00:56;11.80;99.90
7762;DHT22;3925;48.636;9.516;2022-12-29T09:03:24;11.80;99.90
7762;DHT22;3925;48.636;9.516;2022-12-29T09:05:52;11.80;99.90
7762;DHT22;3925;48.636;9.516;2022-12-29T09:08:20;11.90;99.90
7762;DHT22;3925;48.636;9.516;2022-12-29T09:10:47;12.00;99.90
7762;DHT22;3925;48.636;9.516;2022-12-29T09:13:14;12.00;99.90
7762;DHT22;3925;48.636;9.516;2022-12-29T09:15:43;12.10;99.90
7762;DHT22;3925;48.636;9.516;2022-12-29T09:18:11;12.20;99.90
7762;DHT22;3925;48.636;9.516;2022-12-29T09:20:38;12.20;99.90
7762;DHT22;3925;48.636;9.516;2022-12-29T09:23:05;12.30;99.90
7762;DHT22;3925;48.636;9.516;2022-12-29T09:25:32;12.30;99.90
7762;DHT22;3925;48.636;9.516;2022-12-29T09:27:59;12.30;99.90
7762;DHT22;3925;48.636;9.516;2022-12-29T09:30:29;12.40;99.90
7762;DHT22;3925;48.636;9.516;2022-12-29T09:32:57;12.40;99.90
7762;DHT22;3925;48.636;9.516;2022-12-29T09:35:24;12.40;99.90
7762;DHT22;3925;48.636;9.516;2022-12-29T09:37:51;12.40;99.90
7762;DHT22;3925;48.636;9.516;2022-12-29T09:40:26;12.30;99.90
7762;DHT22;3925;48.636;9.516;2022-12-29T09:43:13;12.30;99.90
7762;DHT22;3925;48.636;9.516;2022-12-29T09:45:44;12.20;99.90
7762;DHT22;3925;48.636;9.516;2022-12-29T09:48:16;12.20;99.90
7762;DHT22;3925;48.636;9.516;2022-12-29T09:50:47;12.20;99.90
7762;DHT22;3925;48.636;9.516;2022-12-29T09:53:21;12.10;99.90
7762;DHT22;3925;48.636;9.516;2022-12-29T09:55:51;12.10;99.90
7762;DHT22;3925;48.636;9.516;2022-12-29T09:58:23;12.10;99.90
7762;DHT22;3925;48.636;9.516;2022-12-29T10:00:56;12.20;99.90
7762;DHT22;3925;48.636;9.516;2022-12-29T10:03:32;12.20;99.90
7762;DHT22;3925;48.636;9.516;2022-12-29T10:06:09;12.30;99.90
7762;DHT22;3925;48.636;9.516;2022-12-29T10:08:40;12.40;99.90
7762;DHT22;3925;48.636;9.516;2022-12-29T10:11:20;12.60;99.90
7762;DHT22;3925;48.636;9.516;2022-12-29T10:14:07;12.70;99.90
7762;DHT22;3925;48.636;9.516;2022-12-29T10:16:46;12.80;99.90
7762;DHT22;3925;48.636;9.516;2022-12-29T10:19:28;12.80;99.90
7762;DHT22;3925;48.636;9.516;2022-12-29T10:22:09;12.80;99.90
7762;DHT22;3925;48.636;9.516;2022-12-29T10:24:39;12.80;99.90
7762;DHT22;3925;48.636;9.516;2022-12-29T10:27:10;12.70;99.90
7762;DHT22;3925;48.636;9.516;2022-12-29T10:29:40;12.70;99.90
7762;DHT22;3925;48.636;9.516;2022-12-29T10:32:17;12.70;99.90
7762;DHT22;3925;48.636;9.516;2022-12-29T10:34:52;12.60;99.90
7762;DHT22;3925;48.636;9.516;2022-12-29T10:37:29;12.60;99.90
7762;DHT22;3925;48.636;9.516;2022-12-29T10:39:58;12.50;99.90
7762;DHT22;3925;48.636;9.516;2022-12-29T10:42:27;12.50;99.90
7762;DHT22;3925;48.636;9.516;2022-12-29T10:44:55;12.50;99.90
7762;DHT22;3925;48.636;9.516;2022-12-29T10:47:24;12.40;99.90
7762;DHT22;3925;48.636;9.516;2022-12-29T10:49:54;12.40;99.90
7762;DHT22;3925;48.636;9.516;2022-12-29T10:52:22;12.40;99.90
7762;DHT22;3925;48.636;9.516;2022-12-29T10:54:52;12.30;99.90
7762;DHT22;3925;48.636;9.516;2022-12-29T10:57:26;12.30;99.90
7762;DHT22;3925;48.636;9.516;2022-12-29T10:59:53;12.30;99.90
7762;DHT22;3925;48.636;9.516;2022-12-29T11:02:35;12.30;99.90
7762;DHT22;3925;48.636;9.516;2022-12-29T11:05:11;12.30;99.90
7762;DHT22;3925;48.636;9.516;2022-12-29T11:07:42;12.30;99.90
7762;DHT22;3925;48.636;9.516;2022-12-29T11:10:21;12.30;99.90
7762;DHT22;3925;48.636;9.516;2022-12-29T11:12:56;12.30;99.90
7762;DHT22;3925;48.636;9.516;2022-12-29T11:15:24;12.30;99.90
7762;DHT22;3925;48.636;9.516;2022-12-29T11:17:53;12.40;99.90
7762;DHT22;3925;48.636;9.516;2022-12-29T11:20:37;12.40;99.90
7762;DHT22;3925;48.636;9.516;2022-12-29T11:23:12;12.50;99.90
7762;DHT22;3925;48.636;9.516;2022-12-29T11:26:06;12.50;99.90
7762;DHT22;3925;48.636;9.516;2022-12-29T11:28:33;12.60;99.90
7762;DHT22;3925;48.636;9.516;2022-12-29T11:31:01;12.80;99.90
7762;DHT22;3925;48.636;9.516;2022-12-29T11:33:28;13.10;99.90
7762;DHT22;3925;48.636;9.516;2022-12-29T11:36:02;13.40;99.90
7762;DHT22;3925;48.636;9.516;2022-12-29T11:38:34;13.40;99.90
7762;DHT22;3925;48.636;9.516;2022-12-29T11:41:03;13.40;99.90
7762;DHT22;3925;48.636;9.516;2022-12-29T11:43:34;13.30;99.90
7762;DHT22;3925;48.636;9.516;2022-12-29T11:46:02;13.20;99.90
7762;DHT22;3925;48.636;9.516;2022-12-29T11:48:32;13.10;99.90
7762;DHT22;3925;48.636;9.516;2022-12-29T11:51:01;13.00;99.90
7762;DHT22;3925;48.636;9.516;2022-12-29T11:53:32;12.90;99.90
7762;DHT22;3925;48.636;9.516;2022-12-29T11:56:04;12.90;99.90
7762;DHT22;3925;48.636;9.516;2022-12-29T11:58:33;13.00;99.90
7762;DHT22;3925;48.636;9.516;2022-12-29T12:01:02;13.10;99.90
7762;DHT22;3925;48.636;9.516;2022-12-29T12:03:34;13.10;99.90
7762;DHT22;3925;48.636;9.516;2022-12-29T12:06:07;13.10;99.90
7762;DHT22;3925;48.636;9.516;2022-12-29T12:08:41;13.30;99.90
7762;DHT22;3925;48.636;9.516;2022-12-29T12:11:12;13.30;99.90
7762;DHT22;3925;48.636;9.516;2022-12-29T12:13:46;13.20;99.90
7762;DHT22;3925;48.636;9.516;2022-12-29T12:16:17;13.20;99.90
7762;DHT22;3925;48.636;9.516;2022-12-29T12:18:47;13.10;99.90
7762;DHT22;3925;48.636;9.516;2022-12-29T12:21:22;13.00;99.90
7762;DHT22;3925;48.636;9.516;2022-12-29T12:27:02;12.80;99.90
7762;DHT22;3925;48.636;9.516;2022-12-29T12:29:36;12.70;99.90
7762;DHT22;3925;48.636;9.516;2022-12-29T12:32:12;12.70;99.90
7762;DHT22;3925;48.636;9.516;2022-12-29T12:34:42;12.70;99.90
7762;DHT22;3925;48.636;9.516;2022-12-29T12:37:44;12.70;99.90
7762;DHT22;3925;48.636;9.516;2022-12-29T12:40:34;12.60;99.90
7762;DHT22;3925;48.636;9.516;2022-12-29T12:43:24;12.60;99.90
7762;DHT22;3925;48.636;9.516;2022-12-29T12:46:01;12.50;99.90
7762;DHT22;3925;48.636;9.516;2022-12-29T12:51:31;12.50;99.90
7762;DHT22;3925;48.636;9.516;2022-12-29T12:54:18;12.50;99.90
7762;DHT22;3925;48.636;9.516;2022-12-29T12:57:01;12.60;99.90
7762;DHT22;3925;48.636;9.516;2022-12-29T12:59:38;12.60;99.90
7762;DHT22;3925;48.636;9.516;2022-12-29T13:02:21;12.70;99.90
7762;DHT22;3925;48.636;9.516;2022-12-29T13:05:09;12.60;99.90
7762;DHT22;3925;48.636;9.516;2022-12-29T13:07:49;12.60;99.90
7762;DHT22;3925;48.636;9.516;2022-12-29T13:10:28;12.60;99.90
7762;DHT22;3925;48.636;9.516;2022-12-29T13:13:16;12.50;99.90
7762;DHT22;3925;48.636;9.516;2022-12-29T13:15:55;12.50;99.90
7762;DHT22;3925;48.636;9.516;2022-12-29T13:18:29;12.40;99.90
7762;DHT22;3925;48.636;9.516;2022-12-29T13:21:03;12.40;99.90
7762;DHT22;3925;48.636;9.516;2022-12-29T13:23:41;12.40;99.90
7762;DHT22;3925;48.636;9.516;2022-12-29T13:26:16;12.30;99.90
7762;DHT22;3925;48.636;9.516;2022-12-29T13:28:51;12.20;99.90
7762;DHT22;3925;48.636;9.516;2022-12-29T13:31:25;12.10;99.90
7762;DHT22;3925;48.636;9.516;2022-12-29T13:34:00;12.20;99.90
7762;DHT22;3925;48.636;9.516;2022-12-29T13:36:35;12.20;99.90
7762;DHT22;3925;48.636;9.516;2022-12-29T13:39:10;12.30;99.90
7762;DHT22;3925;48.636;9.516;2022-12-29T13:41:43;12.30;99.90
7762;DHT22;3925;48.636;9.516;2022-12-29T13:44:15;12.30;99.90
7762;DHT22;3925;48.636;9.516;2022-12-29T13:46:45;12.30;99.90
7762;DHT22;3925;48.636;9.516;2022-12-29T13:49:15;12.20;99.90
7762;DHT22;3925;48.636;9.516;2022-12-29T13:51:48;12.30;99.90
7762;DHT22;3925;48.636;9.516;2022-12-29T13:54:27;12.20;99.90
7762;DHT22;3925;48.636;9.516;2022-12-29T13:57:05;12.20;99.90
7762;DHT22;3925;48.636;9.516;2022-12-29T13:59:40;12.20;99.90
7762;DHT22;3925;48.636;9.516;2022-12-29T14:02:17;12.30;99.90
7762;DHT22;3925;48.636;9.516;2022-12-29T14:04:57;12.40;99.90
7762;DHT22;3925;48.636;9.516;2022-12-29T14:07:24;12.40;99.90
7762;DHT22;3925;48.636;9.516;2022-12-29T14:09:53;12.40;99.90
7762;DHT22;3925;48.636;9.516;2022-12-29T14:12:35;12.60;99.90
7762;DHT22;3925;48.636;9.516;2022-12-29T14:15:14;12.50;99.90
7762;DHT22;3925;48.636;9.516;2022-12-29T14:18:02;12.60;99.90
7762;DHT22;3925;48.636;9.516;2022-12-29T14:20:30;12.50;99.90
7762;DHT22;3925;48.636;9.516;2022-12-29T14:22:59;12.50;99.90
7762;DHT22;3925;48.636;9.516;2022-12-29T14:25:54;12.50;99.90
7762;DHT22;3925;48.636;9.516;2022-12-29T14:28:26;12.50;99.90
7762;DHT22;3925;48.636;9.516;2022-12-29T14:30:55;12.50;99.90
7762;DHT22;3925;48.636;9.516;2022-12-29T14:33:23;12.40;99.90
7762;DHT22;3925;48.636;9.516;2022-12-29T14:35:52;12.40;99.90
7762;DHT22;3925;48.636;9.516;2022-12-29T14:38:26;12.30;99.90
7762;DHT22;3925;48.636;9.516;2022-12-29T14:41:27;12.30;99.90
7762;DHT22;3925;48.636;9.516;2022-12-29T14:43:58;12.30;99.90
7762;DHT22;3925;48.636;9.516;2022-12-29T14:46:44;12.30;99.90
7762;DHT22;3925;48.636;9.516;2022-12-29T14:49:17;12.20;99.90
7762;DHT22;3925;48.636;9.516;2022-12-29T14:51:45;12.20;99.90
7762;DHT22;3925;48.636;9.516;2022-12-29T14:54:48;12.10;99.90
7762;DHT22;3925;48.636;9.516;2022-12-29T14:57:26;12.10;99.90
7762;DHT22;3925;48.636;9.516;2022-12-29T15:00:00;12.00;99.90
7762;DHT22;3925;48.636;9.516;2022-12-29T15:02:34;12.00;99.90
7762;DHT22;3925;48.636;9.516;2022-12-29T15:05:05;11.90;99.90
7762;DHT22;3925;48.636;9.516;2022-12-29T15:07:33;11.90;99.90
7762;DHT22;3925;48.636;9.516;2022-12-29T15:10:05;11.90;99.90
7762;DHT22;3925;48.636;9.516;2022-12-29T15:12:37;11.80;99.90
7762;DHT22;3925;48.636;9.516;2022-12-29T15:15:18;11.80;99.90
7762;DHT22;3925;48.636;9.516;2022-12-29T15:17:46;11.80;99.90
7762;DHT22;3925;48.636;9.516;2022-12-29T15:20:22;11.70;99.90
7762;DHT22;3925;48.636;9.516;2022-12-29T15:22:54;11.60;99.90
7762;DHT22;3925;48.636;9.516;2022-12-29T15:25:21;11.50;99.90
7762;DHT22;3925;48.636;9.516;2022-12-29T15:27:50;11.40;99.90
7762;DHT22;3925;48.636;9.516;2022-12-29T15:30:20;11.30;99.90
7762;DHT22;3925;48.636;9.516;2022-12-29T15:32:48;11.30;99.90
7762;DHT22;3925;48.636;9.516;2022-12-29T15:35:24;11.20;99.90
7762;DHT22;3925;48.636;9.516;2022-12-29T15:37:51;11.20;99.90
7762;DHT22;3925;48.636;9.516;2022-12-29T15:40:27;11.10;99.90
7762;DHT22;3925;48.636;9.516;2022-12-29T15:43:10;11.10;99.90
7762;DHT22;3925;48.636;9.516;2022-12-29T15:45:41;11.10;99.90
7762;DHT22;3925;48.636;9.516;2022-12-29T15:48:15;11.10;99.90
7762;DHT22;3925;48.636;9.516;2022-12-29T15:50:43;11.00;99.90
7762;DHT22;3925;48.636;9.516;2022-12-29T15:53:11;11.00;99.90
7762;DHT22;3925;48.636;9.516;2022-12-29T15:55:40;10.90;99.90
7762;DHT22;3925;48.636;9.516;2022-12-29T15:58:19;10.90;99.90
7762;DHT22;3925;48.636;9.516;2022-12-29T16:00:49;10.90;99.90
7762;DHT22;3925;48.636;9.516;2022-12-29T16:03:18;10.90;99.90
7762;DHT22;3925;48.636;9.516;2022-12-29T16:05:52;10.90;99.90
7762;DHT22;3925;48.636;9.516;2022-12-29T16:08:25;10.90;99.90
7762;DHT22;3925;48.636;9.516;2022-12-29T16:10:54;10.90;99.90
7762;DHT22;3925;48.636;9.516;2022-12-29T16:13:26;10.90;99.90
7762;DHT22;3925;48.636;9.516;2022-12-29T16:16:00;10.90;99.90
7762;DHT22;3925;48.636;9.516;2022-12-29T16:18:33;10.90;99.90
7762;DHT22;3925;48.636;9.516;2022-12-29T16:21:02;10.90;99.90
7762;DHT22;3925;48.636;9.516;2022-12-29T16:23:30;10.80;99.90
7762;DHT22;3925;48.636;9.516;2022-12-29T16:25:58;10.80;99.90
7762;DHT22;3925;48.636;9.516;2022-12-29T16:28:40;10.90;99.90
7762;DHT22;3925;48.636;9.516;2022-12-29T16:31:18;10.90;99.90
7762;DHT22;3925;48.636;9.516;2022-12-29T16:33:48;10.90;99.90
7762;DHT22;3925;48.636;9.516;2022-12-29T16:36:27;11.00;99.90
7762;DHT22;3925;48.636;9.516;2022-12-29T16:39:21;11.00;99.90
7762;DHT22;3925;48.636;9.516;2022-12-29T16:41:52;11.00;99.90
7762;DHT22;3925;48.636;9.516;2022-12-29T16:44:20;11.10;99.90